Time;durP1;ratioP1;P1;durP2;ratioP2;P2;SDS_P1;SDS_P2;PMS_P1;PMS_P2;Temp;Humidity;BMP_temperature;BMP_pressure;BME280_temperature;BME280_humidity;BME280_pressure;Samples;Min_cycle;Max_cycle;Signal;HPM_P1;HPM_P2
2022/04/07 00:01:08;;;;;;;;;;;;;;;;;;4970812;28;19968;-76
2022/04/07 00:03:34;;;;;;;;;;;;;;;;;;4992637;28;19944;-77
2022/04/07 00:06:01;;;;;;;;;;;;;;;;;;4994562;28;19973;-77
2022/04/07 00:08:27;;;;;;;;;;;;;;;;;;4983272;28;19934;-77
2022/04/07 00:10:53;;;;;;;;;;;;;;;;;;4983841;28;19962;-77
2022/04/07 00:13:20;;;;;;;;;;;;;;;;;;4999240;28;19965;-77
2022/04/07 00:15:46;;;;;;;;;;;;;;;;;;4985699;28;19984;-77
2022/04/07 00:18:12;;;;;;;;;;;;;;;;;;5000802;28;19956;-77
2022/04/07 00:20:38;;;;;;;;;;;;;;;;;;4987895;28;19965;-78
2022/04/07 00:23:04;;;;;;;;;;;;;;;;;;4999899;28;20484;-78
2022/04/07 00:25:31;;;;;;;;;;;;;;;;;;4989999;28;19953;-78
2022/04/07 00:27:57;;;;;;;;;;;;;;;;;;4981729;28;19933;-78
2022/04/07 00:30:24;;;;;;;;;;;;;;;;;;4981693;28;19956;-78
2022/04/07 00:32:50;;;;;;;;;;;;;;;;;;4985048;28;19965;-78
2022/04/07 00:35:16;;;;;;;;;;;;;;;;;;4991626;28;19961;-78
2022/04/07 00:37:42;;;;;;;;;;;;;;;;;;5000348;28;19972;-79
2022/04/07 00:40:08;;;;;;;;;;;;;;;;;;4984792;28;19976;-76
2022/04/07 00:42:35;;;;;;;;;;;;;;;;;;4987311;28;19957;-78
2022/04/07 00:45:01;;;;;;;;;;;;;;;;;;4995058;28;19953;-77
2022/04/07 00:47:27;;;;;;;;;;;;;;;;;;4985375;28;20011;-78
2022/04/07 00:49:53;;;;;;;;;;;;;;;;;;5004930;28;20032;-77
2022/04/07 00:52:20;;;;;;;;;;;;;;;;;;4987647;28;19962;-77
2022/04/07 00:54:46;;;;;;;;;;;;;;;;;;4988058;28;19953;-78
2022/04/07 00:57:12;;;;;;;;;;;;;;;;;;5003317;28;19956;-78
2022/04/07 00:59:38;;;;;;;;;;;;;;;;;;4986810;28;20007;-78
2022/04/07 01:02:05;;;;;;;;;;;;;;;;;;4982361;28;19959;-78
2022/04/07 01:04:31;;;;;;;;;;;;;;;;;;5001953;28;19961;-78
2022/04/07 01:06:57;;;;;;;;;;;;;;;;;;4993285;28;19964;-77
2022/04/07 01:09:23;;;;;;;;;;;;;;;;;;4995889;28;19945;-78
2022/04/07 01:11:49;;;;;;;;;;;;;;;;;;4988444;28;20457;-78
2022/04/07 01:14:16;;;;;;;;;;;;;;;;;;4986644;28;19960;-78
2022/04/07 01:16:42;;;;;;;;;;;;;;;;;;4990501;28;19926;-78
2022/04/07 01:19:08;;;;;;;;;;;;;;;;;;4996306;28;19964;-78
2022/04/07 01:21:34;;;;;;;;;;;;;;;;;;4989013;28;19973;-78
2022/04/07 01:24:02;;;;;;;;;;;;;;;;;;4997582;28;19941;-77
2022/04/07 01:26:28;;;;;;;;;;;;;;;;;;4999322;28;20418;-77
2022/04/07 01:28:54;;;;;;;;;;;;;;;;;;4979217;28;19961;-77
2022/04/07 01:31:20;;;;;;;;;;;;;;;;;;4976304;28;20666;-77
2022/04/07 01:33:46;;;;;;;;;;;;;;;;;;4983555;28;20244;-77
2022/04/07 01:36:13;;;;;;;;;;;;;;;;;;4991691;28;19961;-77
2022/04/07 01:38:39;;;;;;;;;;;;;;;;;;4985518;28;20638;-77
2022/04/07 01:41:05;;;;;;;;;;;;;;;;;;4994331;28;19969;-77
2022/04/07 01:43:31;;;;;;;;;;;;;;;;;;4986966;28;20348;-78
2022/04/07 01:45:57;;;;;;;;;;;;;;;;;;4988399;28;19961;-77
2022/04/07 01:48:24;;;;;;;;;;;;;;;;;;4991964;28;19953;-77
2022/04/07 01:50:50;;;;;;;;;;;;;;;;;;4986146;28;19969;-77
2022/04/07 01:53:16;;;;;;;;;;;;;;;;;;4991098;28;19952;-77
2022/04/07 01:55:42;;;;;;;;;;;;;;;;;;4986337;28;19968;-78
2022/04/07 01:58:09;;;;;;;;;;;;;;;;;;4989353;28;19961;-76
2022/04/07 02:00:35;;;;;;;;;;;;;;;;;;4988219;28;20432;-77
2022/04/07 02:03:01;;;;;;;;;;;;;;;;;;4984924;28;20389;-78
2022/04/07 02:05:28;;;;;;;;;;;;;;;;;;4998341;28;19965;-77
2022/04/07 02:07:54;;;;;;;;;;;;;;;;;;4998223;28;19957;-77
2022/04/07 02:10:23;;;;;;;;;;;;;;;;;;4985886;28;19953;-77
2022/04/07 02:12:51;;;;;;;;;;;;;;;;;;4994652;28;20491;-80
2022/04/07 02:15:27;;;;;;;;;;;;;;;;;;4995211;28;19922;-79
2022/04/07 02:17:53;;;;;;;;;;;;;;;;;;4987567;28;19918;-79
2022/04/07 02:20:19;;;;;;;;;;;;;;;;;;5008916;28;19956;-78
2022/04/07 02:23:05;;;;;;;;;;;;;;;;;;4991017;28;19918;-78
2022/04/07 02:25:51;;;;;;;;;;;;;;;;;;4982847;28;19914;-78
2022/04/07 02:28:36;;;;;;;;;;;;;;;;;;4991946;28;20434;-78
2022/04/07 02:31:23;;;;;;;;;;;;;;;;;;5016206;28;19927;-78
2022/04/07 02:34:10;;;;;;;;;;;;;;;;;;5025300;28;19924;-79
2022/04/07 02:36:56;;;;;;;;;;;;;;;;;;5031014;28;19932;-79
2022/04/07 02:39:43;;;;;;;;;;;;;;;;;;5032848;28;20003;-79
2022/04/07 02:42:29;;;;;;;;;;;;;;;;;;5033470;28;19928;-79
2022/04/07 02:45:16;;;;;;;;;;;;;;;;;;5040399;28;19920;-79
2022/04/07 02:48:02;;;;;;;;;;;;;;;;;;5025539;28;19925;-78
2022/04/07 02:50:49;;;;;;;;;;;;;;;;;;5017000;28;19921;-78
2022/04/07 02:53:35;;;;;;;;;;;;;;;;;;5023390;28;19915;-78
2022/04/07 02:56:22;;;;;;;;;;;;;;;;;;5032670;28;20313;-78
2022/04/07 02:59:08;;;;;;;;;;;;;;;;;;5017177;28;19920;-78
2022/04/07 03:01:56;;;;;;;;;;;;;;;;;;5031610;28;19932;-78
2022/04/07 03:04:42;;;;;;;;;;;;;;;;;;5029180;28;19917;-78
2022/04/07 03:07:29;;;;;;;;;;;;;;;;;;5023434;28;19913;-78
2022/04/07 03:10:15;;;;;;;;;;;;;;;;;;5027314;28;19924;-78
2022/04/07 03:13:02;;;;;;;;;;;;;;;;;;5024786;28;19925;-79
2022/04/07 03:15:48;;;;;;;;;;;;;;;;;;5006615;28;20280;-78
2022/04/07 03:18:35;;;;;;;;;;;;;;;;;;5020767;28;19928;-78
2022/04/07 03:21:21;;;;;;;;;;;;;;;;;;5019321;28;19921;-78
2022/04/07 03:24:08;;;;;;;;;;;;;;;;;;5017369;28;19917;-78
2022/04/07 03:26:54;;;;;;;;;;;;;;;;;;5015676;28;19913;-77
2022/04/07 03:29:41;;;;;;;;;;;;;;;;;;5020847;28;19914;-79
2022/04/07 03:32:27;;;;;;;;;;;;;;;;;;5020754;28;19917;-77
2022/04/07 03:35:14;;;;;;;;;;;;;;;;;;5016947;28;20282;-78
2022/04/07 03:38:00;;;;;;;;;;;;;;;;;;5023853;28;19929;-78
2022/04/07 03:40:47;;;;;;;;;;;;;;;;;;5024668;28;19918;-78
2022/04/07 03:43:33;;;;;;;;;;;;;;;;;;5026177;28;19921;-78
2022/04/07 03:46:21;;;;;;;;;;;;;;;;;;5012762;28;19920;-78
2022/04/07 03:49:08;;;;;;;;;;;;;;;;;;5018101;28;20293;-79
2022/04/07 03:51:54;;;;;;;;;;;;;;;;;;5018592;28;20407;-79
2022/04/07 03:54:40;;;;;;;;;;;;;;;;;;5019663;28;19927;-78
2022/04/07 03:57:27;;;;;;;;;;;;;;;;;;5021100;28;19913;-79
2022/04/07 04:00:16;;;;;;;;;;;;;;;;;;5011899;28;19913;-81
2022/04/07 04:03:02;;;;;;;;;;;;;;;;;;5021098;28;19925;-80
2022/04/07 04:05:52;;;;;;;;;;;;;;;;;;5020239;28;19914;-79
2022/04/07 04:08:38;;;;;;;;;;;;;;;;;;5020692;28;20307;-77
2022/04/07 04:11:25;;;;;;;;;;;;;;;;;;5019799;28;19913;-79
2022/04/07 04:14:11;;;;;;;;;;;;;;;;;;5020792;28;19921;-80
2022/04/07 04:16:58;;;;;;;;;;;;;;;;;;5021368;28;19939;-80
2022/04/07 04:19:44;;;;;;;;;;;;;;;;;;5021819;28;19914;-80
2022/04/07 04:22:31;;;;;;;;;;;;;;;;;;5017432;28;19926;-79
2022/04/07 04:25:17;;;;;;;;;;;;;;;;;;5020475;28;19928;-80
2022/04/07 04:28:04;;;;;;;;;;;;;;;;;;5012636;28;19943;-78
2022/04/07 04:30:50;;;;;;;;;;;;;;;;;;5019768;28;19921;-78
2022/04/07 04:33:37;;;;;;;;;;;;;;;;;;5019744;28;21316;-78
2022/04/07 04:36:24;;;;;;;;;;;;;;;;;;5019214;28;19913;-78
2022/04/07 04:39:10;;;;;;;;;;;;;;;;;;5029757;28;19917;-78
2022/04/07 04:41:57;;;;;;;;;;;;;;;;;;5013229;28;19927;-78
2022/04/07 04:44:43;;;;;;;;;;;;;;;;;;5032949;28;19917;-77
2022/04/07 04:47:30;;;;;;;;;;;;;;;;;;5021857;28;19913;-77
2022/04/07 04:50:17;;;;;;;;;;;;;;;;;;5020554;28;19980;-78
2022/04/07 04:53:03;;;;;;;;;;;;;;;;;;5019018;28;19909;-78
2022/04/07 04:55:50;;;;;;;;;;;;;;;;;;5020709;28;19919;-78
2022/04/07 04:58:36;;;;;;;;;;;;;;;;;;5023863;28;19917;-78
2022/04/07 05:01:22;;;;;;;;;;;;;;;;;;5017759;28;20330;-79
2022/04/07 05:04:09;;;;;;;;;;;;;;;;;;5018656;28;19913;-78
2022/04/07 05:06:56;;;;;;;;;;;;;;;;;;5027539;28;19919;-79
2022/04/07 05:09:42;;;;;;;;;;;;;;;;;;5024284;28;19940;-79
2022/04/07 05:12:29;;;;;;;;;;;;;;;;;;5011040;28;20346;-78
2022/04/07 05:15:15;;;;;;;;;;;;;;;;;;5014881;28;19920;-79
2022/04/07 05:18:02;;;;;;;;;;;;;;;;;;5028415;28;19924;-78
2022/04/07 05:20:48;;;;;;;;;;;;;;;;;;5031619;28;19923;-78
2022/04/07 05:23:35;;;;;;;;;;;;;;;;;;5027044;28;19909;-78
2022/04/07 05:26:21;;;;;;;;;;;;;;;;;;5013917;28;20273;-79
2022/04/07 05:29:08;;;;;;;;;;;;;;;;;;5006416;28;19922;-78
2022/04/07 05:31:54;;;;;;;;;;;;;;;;;;5021822;28;19944;-79
2022/04/07 05:34:41;;;;;;;;;;;;;;;;;;5011040;28;20250;-80
2022/04/07 05:37:27;;;;;;;;;;;;;;;;;;5000257;28;20538;-78
2022/04/07 05:40:13;;;;;;;;;;;;;;;;;;5015056;28;19910;-78
2022/04/07 05:43:04;;;;;;;;;;;;;;;;;;5022754;28;21760;-78
2022/04/07 05:45:52;;;;;;;;;;;;;;;;;;5010036;28;19913;-78
2022/04/07 05:48:38;;;;;;;;;;;;;;;;;;5009386;28;19917;-78
2022/04/07 05:51:25;;;;;;;;;;;;;;;;;;5011846;28;20284;-78
2022/04/07 05:54:14;;;;;;;;;;;;;;;;;;5003433;28;19924;-79
2022/04/07 05:57:01;;;;;;;;;;;;;;;;;;5003215;28;19909;-79
2022/04/07 05:59:47;;;;;;;;;;;;;;;;;;5012290;28;19917;-80
2022/04/07 06:02:34;;;;;;;;;;;;;;;;;;5010574;28;20296;-79
2022/04/07 06:05:20;;;;;;;;;;;;;;;;;;5014303;28;19910;-80
2022/04/07 06:08:07;;;;;;;;;;;;;;;;;;5022084;28;19914;-79
2022/04/07 06:10:53;;;;;;;;;;;;;;;;;;5012905;28;19921;-78
2022/04/07 06:13:40;;;;;;;;;;;;;;;;;;5018503;28;20292;-79
2022/04/07 06:16:26;;;;;;;;;;;;;;;;;;5001377;28;19917;-79
2022/04/07 06:19:13;;;;;;;;;;;;;;;;;;4998313;28;20377;-82
2022/04/07 06:22:00;;;;;;;;;;;;;;;;;;5003368;28;19921;-79
2022/04/07 06:24:46;;;;;;;;;;;;;;;;;;5015182;28;20378;-82
2022/04/07 06:27:33;;;;;;;;;;;;;;;;;;5014320;28;20304;-82
2022/04/07 06:30:19;;;;;;;;;;;;;;;;;;5013967;28;20471;-84
2022/04/07 06:33:06;;;;;;;;;;;;;;;;;;5011524;28;19932;-82
2022/04/07 06:35:52;;;;;;;;;;;;;;;;;;5013721;28;19916;-83
2022/04/07 06:38:39;;;;;;;;;;;;;;;;;;4998306;28;19918;-83
2022/04/07 06:41:25;;;;;;;;;;;;;;;;;;5035308;28;19936;-82
2022/04/07 06:44:12;;;;;;;;;;;;;;;;;;5032331;28;19921;-81
2022/04/07 06:46:58;;;;;;;;;;;;;;;;;;4995858;28;20421;-81
2022/04/07 06:49:45;;;;;;;;;;;;;;;;;;5012695;28;19921;-81
2022/04/07 06:52:31;;;;;;;;;;;;;;;;;;4998371;28;20412;-82
2022/04/07 06:55:18;;;;;;;;;;;;;;;;;;5003069;28;19944;-81
2022/04/07 06:58:06;;;;;;;;;;;;;;;;;;5012379;28;19910;-82
2022/04/07 07:00:52;;;;;;;;;;;;;;;;;;5016097;28;20289;-88
2022/04/07 07:03:39;;;;;;;;;;;;;;;;;;5000688;28;20404;-87
2022/04/07 07:06:25;;;;;;;;;;;;;;;;;;5000916;28;19914;-88
2022/04/07 07:09:11;;;;;;;;;;;;;;;;;;5011596;28;19914;-84
2022/04/07 07:11:58;;;;;;;;;;;;;;;;;;5006061;28;19924;-84
2022/04/07 07:14:44;;;;;;;;;;;;;;;;;;5010551;28;19913;-81
2022/04/07 07:17:34;;;;;;;;;;;;;;;;;;5002576;28;20456;-81
2022/04/07 07:20:21;;;;;;;;;;;;;;;;;;5015407;28;19916;-79
2022/04/07 07:23:07;;;;;;;;;;;;;;;;;;5006447;28;19918;-80
2022/04/07 07:25:54;;;;;;;;;;;;;;;;;;5007613;28;19916;-83
2022/04/07 07:28:40;;;;;;;;;;;;;;;;;;5009695;28;20297;-83
2022/04/07 07:31:27;;;;;;;;;;;;;;;;;;5010816;28;19914;-83
2022/04/07 07:34:13;;;;;;;;;;;;;;;;;;5021301;28;19918;-83
2022/04/07 07:36:59;;;;;;;;;;;;;;;;;;5018621;28;19914;-86
2022/04/07 07:39:46;;;;;;;;;;;;;;;;;;5010797;28;19915;-84
2022/04/07 07:42:32;;;;;;;;;;;;;;;;;;5013545;28;19917;-84
2022/04/07 07:45:19;;;;;;;;;;;;;;;;;;5006055;28;19917;-83
2022/04/07 07:48:05;;;;;;;;;;;;;;;;;;5027740;28;19913;-83
2022/04/07 07:50:52;;;;;;;;;;;;;;;;;;5027847;28;19932;-81
2022/04/07 07:53:39;;;;;;;;;;;;;;;;;;5025664;28;19913;-83
2022/04/07 07:56:25;;;;;;;;;;;;;;;;;;5011993;28;19913;-83
2022/04/07 07:59:11;;;;;;;;;;;;;;;;;;5012098;28;20286;-83
2022/04/07 08:01:58;;;;;;;;;;;;;;;;;;5013253;28;19925;-83
2022/04/07 08:04:44;;;;;;;;;;;;;;;;;;5015568;28;19910;-83
2022/04/07 08:07:31;;;;;;;;;;;;;;;;;;5023643;28;19916;-83
2022/04/07 08:10:17;;;;;;;;;;;;;;;;;;5031293;28;19916;-83
2022/04/07 08:13:04;;;;;;;;;;;;;;;;;;5023902;28;19985;-83
2022/04/07 08:15:50;;;;;;;;;;;;;;;;;;5018936;28;20476;-83
2022/04/07 08:18:37;;;;;;;;;;;;;;;;;;5026182;28;19913;-83
2022/04/07 08:21:23;;;;;;;;;;;;;;;;;;5015178;28;20435;-84
2022/04/07 08:24:10;;;;;;;;;;;;;;;;;;5023800;28;19924;-83
2022/04/07 08:26:57;;;;;;;;;;;;;;;;;;5027302;28;20020;-83
2022/04/07 08:29:43;;;;;;;;;;;;;;;;;;5014670;28;19917;-83
2022/04/07 08:32:33;;;;;;;;;;;;;;;;;;5025151;28;20233;-83
2022/04/07 08:35:19;;;;;;;;;;;;;;;;;;5029421;28;19908;-83
2022/04/07 08:38:06;;;;;;;;;;;;;;;;;;5030185;28;19909;-83
2022/04/07 08:40:52;;;;;;;;;;;;;;;;;;5029240;28;19920;-83
2022/04/07 08:43:39;;;;;;;;;;;;;;;;;;5030353;28;19928;-83
2022/04/07 08:46:25;;;;;;;;;;;;;;;;;;5010734;28;20289;-83
2022/04/07 08:49:13;;;;;;;;;;;;;;;;;;5011410;28;19916;-83
2022/04/07 08:51:59;;;;;;;;;;;;;;;;;;5012930;28;19920;-84
2022/04/07 08:54:46;;;;;;;;;;;;;;;;;;5011748;28;19909;-83
2022/04/07 08:57:32;;;;;;;;;;;;;;;;;;5025836;28;19913;-83
2022/04/07 09:00:19;;;;;;;;;;;;;;;;;;5038826;28;20657;-83
2022/04/07 09:03:06;;;;;;;;;;;;;;;;;;5025757;28;19918;-83
2022/04/07 09:05:52;;;;;;;;;;;;;;;;;;5031395;28;20360;-83
2022/04/07 09:08:39;;;;;;;;;;;;;;;;;;5024515;28;19913;-83
2022/04/07 09:11:25;;;;;;;;;;;;;;;;;;5013378;28;19913;-83
2022/04/07 09:14:12;;;;;;;;;;;;;;;;;;5024925;28;19924;-83
2022/04/07 09:16:58;;;;;;;;;;;;;;;;;;5027445;28;19913;-83
2022/04/07 09:19:45;;;;;;;;;;;;;;;;;;5048688;28;19909;-84
2022/04/07 09:22:31;;;;;;;;;;;;;;;;;;5034361;28;19928;-83
2022/04/07 09:25:18;;;;;;;;;;;;;;;;;;5046107;28;19909;-83
2022/04/07 09:28:04;;;;;;;;;;;;;;;;;;5033499;28;19928;-83
2022/04/07 09:30:51;;;;;;;;;;;;;;;;;;5033705;28;19916;-83
2022/04/07 09:33:37;;;;;;;;;;;;;;;;;;5020375;28;20686;-83
2022/04/07 09:36:24;;;;;;;;;;;;;;;;;;5033183;28;19933;-84
2022/04/07 09:39:10;;;;;;;;;;;;;;;;;;5032574;28;19913;-83
2022/04/07 09:41:57;;;;;;;;;;;;;;;;;;5021356;28;19920;-83
2022/04/07 09:44:43;;;;;;;;;;;;;;;;;;5023839;28;20373;-82
2022/04/07 09:47:30;;;;;;;;;;;;;;;;;;5032823;28;19917;-83
2022/04/07 09:50:17;;;;;;;;;;;;;;;;;;5018840;28;19909;-83
2022/04/07 09:53:04;;;;;;;;;;;;;;;;;;5032850;28;19913;-84
2022/04/07 09:55:52;;;;;;;;;;;;;;;;;;5047110;28;20380;-83
2022/04/07 09:58:38;;;;;;;;;;;;;;;;;;5033491;28;19927;-82
2022/04/07 10:01:25;;;;;;;;;;;;;;;;;;5047097;28;20276;-83
2022/04/07 10:04:11;;;;;;;;;;;;;;;;;;5018460;28;19909;-82
2022/04/07 10:06:58;;;;;;;;;;;;;;;;;;5025753;28;19918;-83
2022/04/07 10:09:46;;;;;;;;;;;;;;;;;;5031867;28;19924;-83
2022/04/07 10:12:33;;;;;;;;;;;;;;;;;;5017064;28;19909;-83
2022/04/07 10:15:20;;;;;;;;;;;;;;;;;;5032196;28;20380;-83
2022/04/07 10:18:08;;;;;;;;;;;;;;;;;;5031677;28;19913;-83
2022/04/07 10:20:57;;;;;;;;;;;;;;;;;;5044750;28;19913;-84
2022/04/07 10:23:44;;;;;;;;;;;;;;;;;;5036637;28;19921;-82
2022/04/07 10:26:30;;;;;;;;;;;;;;;;;;5037012;28;20334;-82
2022/04/07 10:29:17;;;;;;;;;;;;;;;;;;5023376;28;19928;-84
2022/04/07 10:32:03;;;;;;;;;;;;;;;;;;5030848;28;20450;-84
2022/04/07 10:34:50;;;;;;;;;;;;;;;;;;5033019;28;20373;-83
2022/04/07 10:37:36;;;;;;;;;;;;;;;;;;5005912;28;19923;-83
2022/04/07 10:40:23;;;;;;;;;;;;;;;;;;5032703;28;19936;-84
2022/04/07 10:43:10;;;;;;;;;;;;;;;;;;5012430;28;20396;-83
2022/04/07 10:45:56;;;;;;;;;;;;;;;;;;5031512;28;20288;-82
2022/04/07 10:48:43;;;;;;;;;;;;;;;;;;5036590;28;19935;-83
2022/04/07 10:51:29;;;;;;;;;;;;;;;;;;5017289;28;19913;-83
2022/04/07 10:54:16;;;;;;;;;;;;;;;;;;5011674;28;19929;-83
2022/04/07 10:57:02;;;;;;;;;;;;;;;;;;5023401;28;19910;-84
2022/04/07 10:59:49;;;;;;;;;;;;;;;;;;5016187;28;19916;-84
2022/04/07 11:02:35;;;;;;;;;;;;;;;;;;5024855;28;20349;-82
2022/04/07 11:05:21;;;;;;;;;;;;;;;;;;5012798;28;19913;-82
2022/04/07 11:08:08;;;;;;;;;;;;;;;;;;5017825;28;19917;-82
2022/04/07 11:10:55;;;;;;;;;;;;;;;;;;5024754;28;19925;-82
2022/04/07 11:13:43;;;;;;;;;;;;;;;;;;5026246;28;19910;-83
2022/04/07 11:16:36;;;;;;;;;;;;;;;;;;5027056;28;19910;-83
2022/04/07 11:19:23;;;;;;;;;;;;;;;;;;5024182;28;20262;-83
2022/04/07 11:22:10;;;;;;;;;;;;;;;;;;5025669;28;20512;-82
2022/04/07 11:24:56;;;;;;;;;;;;;;;;;;5040591;28;19909;-83
2022/04/07 11:27:44;;;;;;;;;;;;;;;;;;5025102;28;20415;-84
2022/04/07 11:30:31;;;;;;;;;;;;;;;;;;5014095;28;19916;-83
2022/04/07 11:33:17;;;;;;;;;;;;;;;;;;5030473;28;19909;-84
2022/04/07 11:36:04;;;;;;;;;;;;;;;;;;5026476;28;19913;-84
2022/04/07 11:38:54;;;;;;;;;;;;;;;;;;5027839;28;20289;-83
2022/04/07 11:41:42;;;;;;;;;;;;;;;;;;5025420;28;19917;-83
2022/04/07 11:44:29;;;;;;;;;;;;;;;;;;5027651;28;19913;-83
2022/04/07 11:47:15;;;;;;;;;;;;;;;;;;5030705;28;20318;-82
2022/04/07 11:50:02;;;;;;;;;;;;;;;;;;5018998;28;19913;-82
2022/04/07 11:52:48;;;;;;;;;;;;;;;;;;5025131;28;19936;-84
2022/04/07 11:55:35;;;;;;;;;;;;;;;;;;5030404;28;19919;-83
2022/04/07 11:58:21;;;;;;;;;;;;;;;;;;5021498;28;19916;-83
2022/04/07 12:01:11;;;;;;;;;;;;;;;;;;5028285;28;19910;-82
2022/04/07 12:03:57;;;;;;;;;;;;;;;;;;5041195;28;19939;-83
2022/04/07 12:06:44;;;;;;;;;;;;;;;;;;5031168;28;19913;-82
2022/04/07 12:09:30;;;;;;;;;;;;;;;;;;5018182;28;20376;-84
2022/04/07 12:12:17;;;;;;;;;;;;;;;;;;5035864;28;19909;-83
2022/04/07 12:15:03;;;;;;;;;;;;;;;;;;5046235;28;19909;-83
2022/04/07 12:17:50;;;;;;;;;;;;;;;;;;5034914;28;19913;-82
2022/04/07 12:20:36;;;;;;;;;;;;;;;;;;5030549;28;19920;-83
2022/04/07 12:23:23;;;;;;;;;;;;;;;;;;5030681;28;19925;-83
2022/04/07 12:26:09;;;;;;;;;;;;;;;;;;5030311;28;20279;-83
2022/04/07 12:28:56;;;;;;;;;;;;;;;;;;5040832;28;19951;-83
2022/04/07 12:31:42;;;;;;;;;;;;;;;;;;5015183;28;20276;-83
2022/04/07 12:34:29;;;;;;;;;;;;;;;;;;5030694;28;19909;-84
2022/04/07 12:37:15;;;;;;;;;;;;;;;;;;5015152;28;19909;-82
2022/04/07 12:40:02;;;;;;;;;;;;;;;;;;5031541;28;19909;-83
2022/04/07 12:42:48;;;;;;;;;;;;;;;;;;5030220;28;19921;-82
2022/04/07 12:45:35;;;;;;;;;;;;;;;;;;5040093;28;19920;-83
2022/04/07 12:48:23;;;;;;;;;;;;;;;;;;5008804;28;19921;-83
2022/04/07 12:51:09;;;;;;;;;;;;;;;;;;5024042;28;19913;-83
2022/04/07 12:53:56;;;;;;;;;;;;;;;;;;5030345;28;19921;-83
2022/04/07 12:56:42;;;;;;;;;;;;;;;;;;5038200;28;19910;-84
2022/04/07 12:59:29;;;;;;;;;;;;;;;;;;5027731;28;19909;-83
2022/04/07 13:02:15;;;;;;;;;;;;;;;;;;5027423;28;19913;-84
2022/04/07 13:05:01;;;;;;;;;;;;;;;;;;5044106;28;19909;-83
2022/04/07 13:07:48;;;;;;;;;;;;;;;;;;5026970;28;20325;-82
2022/04/07 13:10:35;;;;;;;;;;;;;;;;;;5031733;28;19913;-83
2022/04/07 13:13:21;;;;;;;;;;;;;;;;;;5027373;28;19915;-83
2022/04/07 13:16:08;;;;;;;;;;;;;;;;;;5024410;28;19935;-82
2022/04/07 13:18:54;;;;;;;;;;;;;;;;;;5035555;28;19912;-82
2022/04/07 13:21:41;;;;;;;;;;;;;;;;;;5033468;28;20305;-82
2022/04/07 13:24:27;;;;;;;;;;;;;;;;;;5039283;28;19916;-83
2022/04/07 13:27:14;;;;;;;;;;;;;;;;;;5009545;28;20322;-85
2022/04/07 13:30:00;;;;;;;;;;;;;;;;;;5014785;28;19927;-80
2022/04/07 13:32:46;;;;;;;;;;;;;;;;;;5012174;28;19916;-81
2022/04/07 13:35:33;;;;;;;;;;;;;;;;;;5023890;28;20391;-81
2022/04/07 13:38:19;;;;;;;;;;;;;;;;;;5026770;28;19916;-81
2022/04/07 13:41:06;;;;;;;;;;;;;;;;;;5021438;28;19913;-82
2022/04/07 13:43:53;;;;;;;;;;;;;;;;;;5015169;28;20416;-81
2022/04/07 13:46:40;;;;;;;;;;;;;;;;;;5020554;28;19909;-82
2022/04/07 13:49:26;;;;;;;;;;;;;;;;;;5008966;28;19915;-82
2022/04/07 13:52:13;;;;;;;;;;;;;;;;;;5013899;28;19918;-82
2022/04/07 13:54:59;;;;;;;;;;;;;;;;;;5009841;28;19920;-81
2022/04/07 13:57:46;;;;;;;;;;;;;;;;;;5016559;28;20414;-82
2022/04/07 14:00:34;;;;;;;;;;;;;;;;;;5010698;28;19918;-81
2022/04/07 14:03:21;;;;;;;;;;;;;;;;;;5018671;28;19932;-82
2022/04/07 14:06:07;;;;;;;;;;;;;;;;;;5022636;28;19913;-82
2022/04/07 14:08:54;;;;;;;;;;;;;;;;;;5015221;28;19941;-80
2022/04/07 14:11:40;;;;;;;;;;;;;;;;;;5019654;28;19924;-80
2022/04/07 14:14:28;;;;;;;;;;;;;;;;;;5024369;28;19914;-79
2022/04/07 14:17:16;;;;;;;;;;;;;;;;;;5027215;28;19919;-78
2022/04/07 14:20:03;;;;;;;;;;;;;;;;;;5036142;28;19924;-81
2022/04/07 14:22:50;;;;;;;;;;;;;;;;;;5026059;28;20388;-81
2022/04/07 14:25:36;;;;;;;;;;;;;;;;;;5021261;28;19909;-81
2022/04/07 14:28:22;;;;;;;;;;;;;;;;;;5026957;28;19932;-80
2022/04/07 14:31:09;;;;;;;;;;;;;;;;;;5032550;28;19909;-79
2022/04/07 14:33:55;;;;;;;;;;;;;;;;;;5024824;28;19921;-79
2022/04/07 14:36:42;;;;;;;;;;;;;;;;;;5027443;28;20471;-80
2022/04/07 14:39:28;;;;;;;;;;;;;;;;;;5020095;28;19924;-80
2022/04/07 14:42:15;;;;;;;;;;;;;;;;;;5017924;28;19929;-80
2022/04/07 14:45:01;;;;;;;;;;;;;;;;;;5016885;28;19913;-80
2022/04/07 14:47:48;;;;;;;;;;;;;;;;;;5014881;28;19920;-80
2022/04/07 14:50:34;;;;;;;;;;;;;;;;;;5016134;28;19917;-80
2022/04/07 14:53:21;;;;;;;;;;;;;;;;;;5012525;28;19922;-81
2022/04/07 14:56:07;;;;;;;;;;;;;;;;;;5012485;28;19920;-81
2022/04/07 14:58:54;;;;;;;;;;;;;;;;;;5014548;28;19920;-81
2022/04/07 15:01:40;;;;;;;;;;;;;;;;;;5018773;28;19913;-80
2022/04/07 15:04:27;;;;;;;;;;;;;;;;;;5014636;28;19928;-81
2022/04/07 15:07:13;;;;;;;;;;;;;;;;;;5014530;28;20026;-81
2022/04/07 15:10:00;;;;;;;;;;;;;;;;;;5019197;28;19917;-80
2022/04/07 15:12:46;;;;;;;;;;;;;;;;;;5020165;28;19913;-81
2022/04/07 15:15:33;;;;;;;;;;;;;;;;;;5014794;28;19917;-81
2022/04/07 15:18:19;;;;;;;;;;;;;;;;;;5018126;28;19910;-81
2022/04/07 15:21:06;;;;;;;;;;;;;;;;;;5012973;28;19924;-79
2022/04/07 15:23:52;;;;;;;;;;;;;;;;;;5022075;28;19917;-80
2022/04/07 15:26:39;;;;;;;;;;;;;;;;;;5013191;28;19914;-79
2022/04/07 15:29:25;;;;;;;;;;;;;;;;;;5016104;28;19929;-80
2022/04/07 15:32:12;;;;;;;;;;;;;;;;;;5016351;28;20389;-79
2022/04/07 15:34:58;;;;;;;;;;;;;;;;;;5012058;28;19909;-79
2022/04/07 15:37:45;;;;;;;;;;;;;;;;;;5016538;28;20384;-84
2022/04/07 15:40:31;;;;;;;;;;;;;;;;;;5025346;28;19920;-80
2022/04/07 15:43:18;;;;;;;;;;;;;;;;;;5021625;28;19922;-80
2022/04/07 15:46:04;;;;;;;;;;;;;;;;;;5014623;28;19914;-80
2022/04/07 15:48:51;;;;;;;;;;;;;;;;;;5018213;28;19909;-80
2022/04/07 15:51:37;;;;;;;;;;;;;;;;;;5026988;28;20273;-80
2022/04/07 15:54:24;;;;;;;;;;;;;;;;;;5030792;28;19909;-81
2022/04/07 15:57:10;;;;;;;;;;;;;;;;;;5007068;28;20400;-81
2022/04/07 15:59:57;;;;;;;;;;;;;;;;;;5016718;28;20369;-81
2022/04/07 16:02:43;;;;;;;;;;;;;;;;;;5020490;28;19925;-82
2022/04/07 16:05:30;;;;;;;;;;;;;;;;;;5022641;28;19924;-80
2022/04/07 16:08:17;;;;;;;;;;;;;;;;;;5033444;28;19935;-78
2022/04/07 16:11:03;;;;;;;;;;;;;;;;;;5023262;28;19927;-80
2022/04/07 16:13:50;;;;;;;;;;;;;;;;;;5026896;28;19910;-79
2022/04/07 16:16:36;;;;;;;;;;;;;;;;;;5030077;28;19910;-80
2022/04/07 16:19:23;;;;;;;;;;;;;;;;;;5034418;28;19920;-79
2022/04/07 16:22:10;;;;;;;;;;;;;;;;;;5032926;28;20415;-79
2022/04/07 16:24:56;;;;;;;;;;;;;;;;;;5022036;28;20287;-81
2022/04/07 16:27:43;;;;;;;;;;;;;;;;;;5007432;28;19925;-80
2022/04/07 16:30:29;;;;;;;;;;;;;;;;;;5016935;28;19913;-78
2022/04/07 16:33:16;;;;;;;;;;;;;;;;;;5013791;28;19936;-79
2022/04/07 16:36:03;;;;;;;;;;;;;;;;;;5017817;28;19910;-79
2022/04/07 16:38:49;;;;;;;;;;;;;;;;;;5020229;28;19917;-78
2022/04/07 16:41:36;;;;;;;;;;;;;;;;;;5020999;28;20564;-79
2022/04/07 16:44:22;;;;;;;;;;;;;;;;;;5028495;28;19927;-79
2022/04/07 16:47:09;;;;;;;;;;;;;;;;;;5015226;28;19920;-80
2022/04/07 16:49:56;;;;;;;;;;;;;;;;;;5012279;28;19920;-81
2022/04/07 16:52:42;;;;;;;;;;;;;;;;;;5017035;28;19921;-82
2022/04/07 16:55:29;;;;;;;;;;;;;;;;;;5013549;28;20404;-82
2022/04/07 16:58:15;;;;;;;;;;;;;;;;;;5013140;28;19917;-81
2022/04/07 17:01:02;;;;;;;;;;;;;;;;;;5018742;28;19923;-80
2022/04/07 17:03:48;;;;;;;;;;;;;;;;;;5034423;28;19921;-81
2022/04/07 17:06:36;;;;;;;;;;;;;;;;;;5030472;28;19914;-79
2022/04/07 17:09:23;;;;;;;;;;;;;;;;;;5012128;28;19913;-80
2022/04/07 17:12:09;;;;;;;;;;;;;;;;;;5011508;28;20126;-81
2022/04/07 17:14:56;;;;;;;;;;;;;;;;;;5013138;28;19925;-79
2022/04/07 17:17:44;;;;;;;;;;;;;;;;;;5014934;28;19917;-80
2022/04/07 17:20:31;;;;;;;;;;;;;;;;;;5014308;28;19920;-80
2022/04/07 17:23:17;;;;;;;;;;;;;;;;;;5016701;28;19949;-81
2022/04/07 17:26:04;;;;;;;;;;;;;;;;;;5010881;28;19913;-79
2022/04/07 17:28:50;;;;;;;;;;;;;;;;;;5010361;28;20345;-80
2022/04/07 17:31:37;;;;;;;;;;;;;;;;;;5016876;28;19916;-80
2022/04/07 17:34:23;;;;;;;;;;;;;;;;;;5024174;28;19920;-80
2022/04/07 17:37:10;;;;;;;;;;;;;;;;;;5033493;28;19918;-83
2022/04/07 17:39:56;;;;;;;;;;;;;;;;;;5024300;28;19909;-81
2022/04/07 17:42:43;;;;;;;;;;;;;;;;;;5028615;28;19921;-82
2022/04/07 17:45:33;;;;;;;;;;;;;;;;;;5027941;28;19917;-83
2022/04/07 17:48:20;;;;;;;;;;;;;;;;;;5018627;28;19929;-79
2022/04/07 17:51:06;;;;;;;;;;;;;;;;;;5033786;28;19909;-81
2022/04/07 17:53:53;;;;;;;;;;;;;;;;;;5029345;28;20392;-81
2022/04/07 17:56:41;;;;;;;;;;;;;;;;;;5033213;28;19913;-79
2022/04/07 17:59:27;;;;;;;;;;;;;;;;;;5033772;28;19913;-81
2022/04/07 18:02:14;;;;;;;;;;;;;;;;;;5021127;28;19913;-80
2022/04/07 18:05:00;;;;;;;;;;;;;;;;;;5042129;28;19932;-80
2022/04/07 18:07:47;;;;;;;;;;;;;;;;;;5020560;28;19909;-78
2022/04/07 18:10:33;;;;;;;;;;;;;;;;;;5018712;28;19921;-82
2022/04/07 18:13:20;;;;;;;;;;;;;;;;;;5024038;28;20015;-80
2022/04/07 18:16:09;;;;;;;;;;;;;;;;;;5022613;28;19935;-81
2022/04/07 18:18:55;;;;;;;;;;;;;;;;;;5020733;28;19916;-82
2022/04/07 18:21:42;;;;;;;;;;;;;;;;;;5031112;28;19923;-81
2022/04/07 18:24:29;;;;;;;;;;;;;;;;;;5032891;28;19924;-80
2022/04/07 18:27:15;;;;;;;;;;;;;;;;;;5032278;28;19927;-80
2022/04/07 18:30:02;;;;;;;;;;;;;;;;;;5039252;28;19913;-79
2022/04/07 18:32:48;;;;;;;;;;;;;;;;;;5031458;28;20360;-80
2022/04/07 18:35:35;;;;;;;;;;;;;;;;;;5021729;28;20391;-82
2022/04/07 18:38:21;;;;;;;;;;;;;;;;;;5026179;28;20342;-81